createdAt,value
2024-04-12T00:00:16.210Z,113.55
2024-04-12T00:01:16.156Z,114.04
2024-04-12T00:02:32.066Z,114.60
2024-04-12T00:03:16.195Z,113.65
2024-04-12T00:04:16.148Z,114.26
2024-04-12T00:05:16.160Z,115.29
2024-04-12T00:06:16.196Z,116.68
2024-04-12T00:07:18.007Z,117.14
2024-04-12T00:08:16.142Z,113.50
2024-04-12T00:09:16.147Z,113.75
2024-04-12T00:10:16.135Z,113.84
2024-04-12T00:11:16.176Z,114.27
2024-04-12T00:12:16.241Z,114.29
2024-04-12T00:13:16.155Z,113.33
2024-04-12T00:14:16.153Z,114.50
2024-04-12T00:15:16.179Z,114.29
2024-04-12T00:16:16.188Z,113.51
2024-04-12T00:17:16.147Z,114.44
2024-04-12T00:18:17.136Z,111.89
2024-04-12T00:19:16.187Z,113.20
2024-04-12T00:20:16.157Z,112.70
2024-04-12T00:21:24.015Z,112.17
2024-04-12T00:22:16.260Z,112.31
2024-04-12T00:23:16.167Z,112.58
2024-04-12T00:24:19.002Z,112.49
2024-04-12T00:25:16.176Z,112.19
2024-04-12T00:26:16.159Z,113.95
2024-04-12T00:27:23.511Z,113.18
2024-04-12T00:28:16.172Z,113.29
2024-04-12T00:29:16.161Z,113.26
2024-04-12T00:30:42.533Z,113.24
2024-04-12T00:31:16.178Z,113.36
2024-04-12T00:32:16.208Z,113.96
2024-04-12T00:33:16.317Z,114.43
2024-04-12T00:34:16.246Z,115.64
2024-04-12T00:35:16.195Z,115.36
2024-04-12T00:36:16.282Z,115.54
2024-04-12T00:37:16.298Z,114.05
2024-04-12T00:38:16.311Z,113.49
2024-04-12T00:39:16.360Z,113.09
2024-04-12T00:40:16.446Z,112.80
2024-04-12T00:41:16.467Z,112.39
2024-04-12T00:42:16.490Z,111.60
2024-04-12T00:43:16.547Z,112.20
2024-04-12T00:44:16.583Z,112.04
2024-04-12T00:45:16.738Z,111.72
2024-04-12T00:46:16.658Z,111.26
2024-04-12T00:47:16.726Z,110.90
2024-04-12T00:48:16.839Z,110.32
2024-04-12T00:49:16.786Z,109.19
2024-04-12T00:50:16.824Z,108.98
2024-04-12T00:51:16.890Z,109.78
2024-04-12T00:52:31.512Z,109.21
2024-04-12T00:53:17.309Z,109.35
2024-04-12T00:54:17.152Z,109.87
2024-04-12T00:55:32.026Z,110.40
2024-04-12T00:56:17.226Z,109.43
2024-04-12T00:57:17.174Z,110.04
2024-04-12T00:58:17.178Z,110.77
2024-04-12T00:59:17.186Z,111.45
2024-04-12T01:00:17.205Z,112.02
2024-04-12T01:01:17.373Z,112.13
2024-04-12T01:02:17.223Z,110.13
2024-04-12T01:03:17.261Z,110.89
2024-04-12T01:04:17.242Z,111.86
2024-04-12T01:05:17.195Z,110.81
2024-04-12T01:06:17.213Z,110.64
2024-04-12T01:07:17.191Z,110.55
2024-04-12T01:08:17.195Z,110.88
2024-04-12T01:09:17.199Z,111.24
2024-04-12T01:10:17.200Z,111.85
2024-04-12T01:11:17.248Z,111.39
2024-04-12T01:12:17.208Z,110.53
2024-04-12T01:13:17.213Z,111.26
2024-04-12T01:14:32.075Z,110.56
2024-04-12T01:15:17.217Z,110.72
2024-04-12T01:16:17.219Z,111.25
2024-04-12T01:17:20.182Z,111.94
2024-04-12T01:18:17.322Z,110.69
2024-04-12T01:19:17.211Z,111.00
2024-04-12T01:20:24.024Z,111.33
2024-04-12T01:21:17.267Z,110.71
2024-04-12T01:22:17.224Z,111.20
2024-04-12T01:23:53.087Z,111.23
2024-04-12T01:24:17.222Z,110.68
2024-04-12T01:25:17.216Z,111.83
2024-04-12T01:26:17.231Z,113.47
2024-04-12T01:27:17.228Z,114.31
2024-04-12T01:28:17.464Z,117.29
2024-04-12T01:29:17.231Z,118.86
2024-04-12T01:30:17.241Z,115.46
2024-04-12T01:31:17.230Z,115.23
2024-04-12T01:32:17.284Z,113.39
2024-04-12T01:33:17.382Z,114.94
2024-04-12T01:34:17.238Z,112.95
2024-04-12T01:35:17.229Z,112.11
2024-04-12T01:36:17.239Z,111.56
2024-04-12T01:37:17.309Z,111.90
2024-04-12T01:38:17.245Z,111.83
2024-04-12T01:39:20.039Z,111.02
2024-04-12T01:40:17.238Z,111.06
2024-04-12T01:41:17.241Z,111.13
2024-04-12T01:42:17.237Z,110.97
2024-04-12T01:43:17.241Z,110.30
2024-04-12T01:44:17.248Z,111.22
2024-04-12T01:45:20.045Z,111.75
2024-04-12T01:46:17.260Z,111.76
2024-04-12T01:47:17.251Z,111.81
2024-04-12T01:48:41.765Z,111.96
2024-04-12T01:49:17.264Z,111.93
2024-04-12T01:50:17.259Z,112.66
2024-04-12T01:51:31.557Z,113.21
2024-04-12T01:52:17.259Z,112.03
2024-04-12T01:53:17.263Z,112.65
2024-04-12T01:54:17.262Z,113.55
2024-04-12T01:55:17.272Z,114.23
2024-04-12T01:56:17.276Z,115.06
2024-04-12T01:57:17.309Z,112.88
2024-04-12T01:58:17.356Z,113.14
2024-04-12T01:59:17.419Z,112.34
2024-04-12T02:00:17.503Z,110.57
2024-04-12T02:01:17.621Z,112.11
2024-04-12T02:02:17.550Z,110.52
2024-04-12T02:03:17.628Z,110.79
2024-04-12T02:04:17.683Z,110.12
2024-04-12T02:05:17.706Z,111.02
2024-04-12T02:06:18.295Z,110.72
2024-04-12T02:07:28.558Z,111.03
2024-04-12T02:08:17.868Z,111.13
2024-04-12T02:09:17.768Z,111.29
2024-04-12T02:10:18.562Z,111.29
2024-04-12T02:11:17.820Z,111.32
2024-04-12T02:12:17.796Z,110.65
2024-04-12T02:13:32.557Z,109.61
2024-04-12T02:14:17.783Z,109.78
2024-04-12T02:15:17.781Z,110.44
2024-04-12T02:16:40.575Z,111.16
2024-04-12T02:17:17.782Z,109.88
2024-04-12T02:18:17.817Z,110.97
2024-04-12T02:19:17.923Z,112.56
2024-04-12T02:20:17.801Z,114.64
2024-04-12T02:21:17.842Z,115.42
2024-04-12T02:22:17.791Z,115.78
2024-04-12T02:23:17.789Z,113.48
2024-04-12T02:24:17.793Z,113.99
2024-04-12T02:25:17.814Z,113.08
2024-04-12T02:26:17.819Z,113.90
2024-04-12T02:27:17.796Z,113.43
2024-04-12T02:28:17.806Z,112.80
2024-04-12T02:29:17.792Z,112.25
2024-04-12T02:30:17.854Z,112.70
2024-04-12T02:31:17.809Z,112.42
2024-04-12T02:32:17.867Z,112.83
2024-04-12T02:33:18.168Z,112.00
2024-04-12T02:34:17.929Z,111.83
2024-04-12T02:35:32.611Z,110.73
2024-04-12T02:36:18.376Z,110.94
2024-04-12T02:37:18.226Z,111.45
2024-04-12T02:38:33.248Z,111.86
2024-04-12T02:39:18.253Z,110.96
2024-04-12T02:40:18.259Z,111.70
2024-04-12T02:41:39.555Z,112.75
2024-04-12T02:42:18.261Z,110.99
2024-04-12T02:43:18.272Z,112.06
2024-04-12T02:44:54.115Z,113.62
2024-04-12T02:45:18.267Z,110.89
2024-04-12T02:46:18.269Z,112.40
2024-04-12T02:47:18.297Z,115.11
2024-04-12T02:48:18.367Z,117.74
2024-04-12T02:49:18.278Z,119.86
2024-04-12T02:50:18.287Z,121.51
2024-04-12T02:51:18.282Z,119.05
2024-04-12T02:52:18.277Z,117.52
2024-04-12T02:53:18.279Z,116.92
2024-04-12T02:54:18.383Z,116.11
2024-04-12T02:55:18.283Z,117.38
2024-04-12T02:56:18.290Z,115.62
2024-04-12T02:57:18.288Z,115.02
2024-04-12T02:58:18.280Z,114.05
2024-04-12T02:59:18.281Z,114.38
2024-04-12T03:00:25.092Z,113.54
2024-04-12T03:01:18.310Z,113.64
2024-04-12T03:02:18.358Z,113.76
2024-04-12T03:03:34.655Z,113.94
2024-04-12T03:04:18.296Z,113.77
2024-04-12T03:05:18.288Z,114.40
2024-04-12T03:06:21.610Z,115.01
2024-04-12T03:07:18.302Z,113.71
2024-04-12T03:08:18.307Z,114.13
2024-04-12T03:09:34.621Z,114.61
2024-04-12T03:10:18.321Z,113.79
2024-04-12T03:11:18.327Z,114.34
2024-04-12T03:12:18.409Z,115.38
2024-04-12T03:13:18.316Z,116.44
2024-04-12T03:14:18.320Z,116.83
2024-04-12T03:15:18.316Z,115.57
2024-04-12T03:16:18.337Z,114.89
2024-04-12T03:17:18.325Z,114.42
2024-04-12T03:18:18.384Z,112.24
2024-04-12T03:19:18.330Z,113.22
2024-04-12T03:20:18.329Z,112.17
2024-04-12T03:21:18.332Z,113.35
2024-04-12T03:22:18.325Z,111.42
2024-04-12T03:23:18.324Z,112.25
2024-04-12T03:24:18.374Z,109.50
2024-04-12T03:25:18.331Z,112.18
2024-04-12T03:26:18.336Z,110.90
2024-04-12T03:27:18.358Z,111.25
2024-04-12T03:28:33.095Z,108.93
2024-04-12T03:29:18.702Z,109.12
2024-04-12T03:30:18.323Z,109.68
2024-04-12T03:31:32.618Z,110.59
2024-04-12T03:32:18.345Z,109.24
2024-04-12T03:33:18.416Z,110.21
2024-04-12T03:34:39.427Z,111.69
2024-04-12T03:35:18.402Z,109.18
2024-04-12T03:36:18.348Z,110.36
2024-04-12T03:37:54.098Z,111.68
2024-04-12T03:38:18.350Z,109.10
2024-04-12T03:39:18.355Z,110.75
2024-04-12T03:40:18.421Z,113.22
2024-04-12T03:41:18.362Z,116.74
2024-04-12T03:42:18.439Z,118.90
2024-04-12T03:43:18.355Z,121.87
2024-04-12T03:44:18.360Z,120.76
2024-04-12T03:45:18.478Z,120.14
2024-04-12T03:46:18.355Z,117.74
2024-04-12T03:47:18.362Z,117.44
2024-04-12T03:48:18.466Z,117.04
2024-04-12T03:49:18.356Z,117.60
2024-04-12T03:50:18.356Z,116.67
2024-04-12T03:51:18.403Z,116.36
2024-04-12T03:52:18.364Z,116.70
2024-04-12T03:53:18.372Z,115.64
2024-04-12T03:54:18.371Z,116.60
2024-04-12T03:55:18.366Z,115.72
2024-04-12T03:56:20.145Z,114.84
2024-04-12T03:57:18.466Z,115.00
2024-04-12T03:58:18.498Z,115.24
2024-04-12T03:59:33.141Z,113.96
2024-04-12T04:00:18.440Z,114.16
2024-04-12T04:01:18.388Z,114.58
2024-04-12T04:02:41.659Z,115.69
2024-04-12T04:03:18.383Z,114.24
2024-04-12T04:04:18.386Z,115.22
2024-04-12T04:05:18.396Z,116.90
2024-04-12T04:06:18.412Z,118.25
2024-04-12T04:07:19.808Z,118.40
2024-04-12T04:08:18.622Z,119.40
2024-04-12T04:09:18.480Z,118.74
2024-04-12T04:10:18.520Z,118.07
2024-04-12T04:11:18.599Z,116.16
2024-04-12T04:12:19.386Z,116.28
2024-04-12T04:13:18.669Z,114.80
2024-04-12T04:14:18.716Z,115.02
2024-04-12T04:15:18.856Z,114.60
2024-04-12T04:16:18.823Z,113.23
2024-04-12T04:17:18.968Z,114.71
2024-04-12T04:18:25.678Z,114.54
2024-04-12T04:19:19.140Z,114.63
2024-04-12T04:20:18.927Z,114.03
2024-04-12T04:21:26.628Z,114.12
2024-04-12T04:22:18.932Z,114.67
2024-04-12T04:23:18.932Z,114.96
2024-04-12T04:24:18.933Z,114.50
2024-04-12T04:25:18.930Z,114.88
2024-04-12T04:26:18.933Z,113.80
2024-04-12T04:27:40.042Z,113.75
2024-04-12T04:28:18.940Z,113.95
2024-04-12T04:29:18.929Z,114.59
2024-04-12T04:30:54.626Z,115.22
2024-04-12T04:31:19.753Z,113.90
2024-04-12T04:32:19.123Z,115.34
2024-04-12T04:33:19.067Z,117.14
2024-04-12T04:34:18.947Z,119.40
2024-04-12T04:35:18.945Z,121.16
2024-04-12T04:36:18.948Z,122.78
2024-04-12T04:37:23.333Z,121.10
2024-04-12T04:38:19.956Z,121.20
2024-04-12T04:39:18.983Z,121.16
2024-04-12T04:40:19.963Z,120.56
2024-04-12T04:41:18.955Z,118.21
2024-04-12T04:42:18.958Z,116.41
2024-04-12T04:43:18.958Z,119.05
2024-04-12T04:44:18.990Z,117.83
2024-04-12T04:45:19.328Z,115.83
2024-04-12T04:46:18.961Z,116.72
2024-04-12T04:47:18.959Z,115.23
2024-04-12T04:48:19.182Z,115.23
2024-04-12T04:49:19.060Z,114.44
2024-04-12T04:50:18.955Z,115.17
2024-04-12T04:51:19.042Z,112.62
2024-04-12T04:52:26.393Z,50.00
2024-04-12T04:53:26.359Z,50.00
2024-04-12T04:54:26.372Z,50.00
2024-04-12T04:55:47.384Z,50.00
2024-04-12T04:56:26.369Z,50.00
2024-04-12T04:57:26.359Z,50.00
2024-04-12T04:58:40.965Z,50.00
2024-04-12T04:59:26.579Z,50.00
2024-04-12T05:00:26.639Z,50.00
2024-04-12T05:01:26.667Z,50.00
2024-04-12T05:02:26.671Z,50.00
2024-04-12T05:03:26.759Z,50.00
2024-04-12T05:04:26.703Z,52.94
2024-04-12T05:05:27.428Z,50.75
2024-04-12T05:06:26.785Z,53.24
2024-04-12T05:07:26.786Z,50.63
2024-04-12T05:08:26.815Z,51.35
2024-04-12T05:09:26.844Z,51.05
2024-04-12T05:10:27.290Z,53.67
2024-04-12T05:11:26.987Z,52.21
2024-04-12T05:12:27.049Z,51.23
2024-04-12T05:13:27.128Z,53.27
2024-04-12T05:14:26.987Z,53.66
2024-04-12T05:15:26.999Z,51.51
2024-04-12T05:16:27.037Z,53.98
2024-04-12T05:17:30.532Z,54.04
2024-04-12T05:18:27.128Z,55.52
2024-04-12T05:19:27.079Z,51.56
2024-04-12T05:20:42.113Z,52.09
2024-04-12T05:21:27.058Z,52.42
2024-04-12T05:22:27.069Z,53.42
2024-04-12T05:23:55.008Z,54.63
2024-04-12T05:24:27.069Z,52.47
2024-04-12T05:25:27.070Z,54.37
2024-04-12T05:26:55.017Z,56.51
2024-04-12T05:27:27.083Z,52.54
2024-04-12T05:28:27.078Z,55.14
2024-04-12T05:29:27.099Z,58.48
2024-04-12T05:30:27.088Z,63.19
2024-04-12T05:31:27.091Z,67.76
2024-04-12T05:32:27.534Z,68.36
2024-04-12T05:33:27.163Z,67.84
2024-04-12T05:34:27.099Z,67.04
2024-04-12T05:35:27.088Z,68.46
2024-04-12T05:36:28.001Z,69.87
2024-04-12T05:37:27.492Z,69.62
2024-04-12T05:38:27.091Z,72.30
2024-04-12T05:39:27.164Z,77.58
2024-04-12T05:40:27.094Z,78.11
2024-04-12T05:41:27.094Z,79.53
2024-04-12T05:42:27.559Z,82.01
2024-04-12T05:43:27.096Z,84.84
2024-04-12T05:44:27.098Z,84.69
2024-04-12T05:45:41.991Z,86.81
2024-04-12T05:46:27.106Z,87.15
2024-04-12T05:47:27.143Z,88.52
2024-04-12T05:48:48.184Z,91.37
2024-04-12T05:49:27.115Z,87.41
2024-04-12T05:50:27.125Z,90.57
2024-04-12T05:51:48.164Z,95.88
2024-04-12T05:52:27.113Z,87.67
2024-04-12T05:53:27.121Z,92.37
2024-04-12T05:54:27.127Z,101.45
2024-04-12T05:55:27.112Z,114.64
2024-04-12T05:56:27.429Z,136.72
2024-04-12T05:57:27.502Z,146.09
2024-04-12T05:58:27.118Z,149.44
2024-04-12T05:59:27.126Z,154.57
2024-04-12T06:00:27.125Z,155.66
2024-04-12T06:01:27.318Z,159.26
2024-04-12T06:02:27.165Z,160.72
2024-04-12T06:03:27.177Z,162.31
2024-04-12T06:04:27.119Z,165.71
2024-04-12T06:05:27.133Z,168.88
2024-04-12T06:06:27.142Z,173.11
2024-04-12T06:07:27.129Z,176.33
2024-04-12T06:08:27.137Z,178.88
2024-04-12T06:09:27.190Z,182.32
2024-04-12T06:10:29.999Z,186.10
2024-04-12T06:11:27.203Z,186.30
2024-04-12T06:12:27.301Z,187.19
2024-04-12T06:13:34.003Z,190.62
2024-04-12T06:14:27.141Z,186.71
2024-04-12T06:15:27.147Z,189.18
2024-04-12T06:16:51.543Z,193.91
2024-04-12T06:17:27.182Z,186.85
2024-04-12T06:18:27.302Z,191.00
2024-04-12T06:20:27.172Z,186.62
2024-04-12T06:21:27.181Z,192.67
2024-04-12T06:22:27.170Z,204.63
2024-04-12T06:23:29.030Z,222.24
2024-04-12T06:24:27.166Z,247.62
2024-04-12T06:25:27.164Z,197.88
2024-04-12T06:26:27.171Z,198.84
2024-04-12T06:27:27.172Z,198.68
2024-04-12T06:28:27.174Z,199.64
2024-04-12T06:29:32.968Z,198.65
2024-04-12T06:30:28.172Z,198.79
2024-04-12T06:31:27.161Z,199.50
2024-04-12T06:32:30.594Z,199.65
2024-04-12T06:33:27.258Z,200.93
2024-04-12T06:34:27.199Z,202.45
2024-04-12T06:35:34.013Z,199.30
2024-04-12T06:36:27.181Z,199.44
2024-04-12T06:37:27.175Z,199.86
2024-04-12T06:38:27.197Z,200.01
2024-04-12T06:39:27.164Z,202.07
2024-04-12T06:40:27.162Z,204.92
2024-04-12T06:41:34.014Z,198.11
2024-04-12T06:42:27.179Z,198.25
2024-04-12T06:43:27.172Z,198.90
2024-04-12T06:44:48.268Z,199.76
2024-04-12T06:45:27.182Z,198.44
2024-04-12T06:46:27.182Z,199.91
2024-04-12T06:47:27.337Z,202.59
2024-04-12T06:48:27.282Z,205.38
2024-04-12T06:49:27.184Z,210.09
2024-04-12T06:50:27.189Z,204.23
2024-04-12T06:51:27.191Z,198.34
2024-04-12T06:52:27.237Z,198.52
2024-04-12T06:53:27.202Z,197.78
2024-04-12T06:54:27.195Z,199.53
2024-04-12T06:55:27.191Z,198.45
2024-04-12T06:56:27.200Z,199.79
2024-04-12T06:57:27.231Z,199.60
2024-04-12T06:58:27.204Z,199.04
2024-04-12T06:59:27.217Z,200.00
2024-04-12T07:00:27.308Z,199.90
2024-04-12T07:01:27.267Z,199.50
2024-04-12T07:02:27.381Z,198.99
2024-04-12T07:03:27.338Z,197.52
2024-04-12T07:04:27.218Z,199.36
2024-04-12T07:05:27.208Z,199.73
2024-04-12T07:06:42.040Z,196.84
2024-04-12T07:07:27.216Z,197.05
2024-04-12T07:08:27.210Z,197.65
2024-04-12T07:09:42.027Z,198.63
2024-04-12T07:10:27.224Z,197.15
2024-04-12T07:11:27.215Z,198.12
2024-04-12T07:12:48.254Z,198.87
2024-04-12T07:13:27.236Z,197.16
2024-04-12T07:14:27.226Z,198.58
2024-04-12T07:15:27.222Z,200.50
2024-04-12T07:16:27.223Z,203.85
2024-04-12T07:17:27.394Z,205.95
2024-04-12T07:18:27.300Z,200.34
2024-04-12T07:19:27.229Z,198.14
2024-04-12T07:20:28.767Z,198.39
2024-04-12T07:21:27.284Z,198.55
2024-04-12T07:22:27.231Z,199.05
2024-04-12T07:23:27.235Z,200.55
2024-04-12T07:24:27.229Z,203.50
2024-04-12T07:25:27.228Z,208.18
2024-04-12T07:26:27.238Z,200.00
2024-04-12T07:27:27.237Z,199.40
2024-04-12T07:28:34.543Z,200.00
2024-04-12T07:29:27.228Z,200.04
2024-04-12T07:30:27.241Z,200.43
2024-04-12T07:31:27.235Z,200.59
2024-04-12T07:32:27.378Z,201.16
2024-04-12T07:33:27.381Z,201.88
2024-04-12T07:34:42.043Z,198.29
2024-04-12T07:35:27.307Z,198.46
2024-04-12T07:36:27.247Z,198.66
2024-04-12T07:37:51.551Z,199.16
2024-04-12T07:38:27.253Z,198.54
2024-04-12T07:39:27.299Z,199.64
2024-04-12T07:40:27.337Z,200.87
2024-04-12T07:41:27.291Z,202.64
2024-04-12T07:42:27.282Z,204.62
2024-04-12T07:43:27.274Z,199.71
2024-04-12T07:44:27.270Z,197.73
2024-04-12T07:45:27.284Z,198.54
2024-04-12T07:46:27.271Z,196.36
2024-04-12T07:47:27.322Z,195.59
2024-04-12T07:48:30.722Z,199.16
2024-04-12T07:49:28.304Z,199.25
2024-04-12T07:50:27.292Z,199.31
2024-04-12T07:51:27.281Z,199.91
2024-04-12T07:52:27.285Z,200.82
2024-04-12T07:53:27.334Z,200.94
2024-04-12T07:54:27.294Z,199.07
2024-04-12T07:55:27.281Z,199.75
2024-04-12T07:56:34.563Z,198.51
2024-04-12T07:57:27.288Z,198.61
2024-04-12T07:58:27.292Z,198.89
2024-04-12T07:59:48.311Z,199.01
2024-04-12T08:00:27.301Z,198.71
2024-04-12T08:01:27.536Z,199.35
2024-04-12T08:02:41.691Z,199.68
2024-04-12T08:03:27.594Z,198.75
2024-04-12T08:04:27.506Z,199.11
2024-04-12T08:05:48.357Z,199.54
2024-04-12T08:06:27.317Z,198.71
2024-04-12T08:07:29.213Z,199.46
2024-04-12T08:08:27.331Z,198.70
2024-04-12T08:09:27.345Z,199.35
2024-04-12T08:10:27.337Z,199.43
2024-04-12T08:11:27.352Z,199.53
2024-04-12T08:12:27.343Z,199.04
2024-04-12T08:13:27.330Z,196.88
2024-04-12T08:14:27.338Z,197.49
2024-04-12T08:15:27.376Z,197.17
2024-04-12T08:16:27.343Z,196.95
2024-04-12T08:17:27.499Z,196.64
2024-04-12T08:18:27.587Z,196.41
2024-04-12T08:19:27.505Z,195.35
2024-04-12T08:20:27.499Z,194.98
2024-04-12T08:21:27.586Z,192.69
2024-04-12T08:22:27.661Z,189.00
2024-04-12T08:23:27.359Z,187.12
2024-04-12T08:24:34.066Z,183.43
2024-04-12T08:25:27.365Z,183.49
2024-04-12T08:26:27.379Z,183.18
2024-04-12T08:27:41.575Z,182.23
2024-04-12T08:28:27.369Z,183.52
2024-04-12T08:29:27.362Z,181.90
2024-04-12T08:30:55.077Z,178.30
2024-04-12T08:31:27.374Z,183.55
2024-04-12T08:32:27.400Z,183.67
2024-04-12T08:33:27.437Z,181.13
2024-04-12T08:34:27.374Z,175.50
2024-04-12T08:35:27.439Z,171.02
2024-04-12T08:36:27.423Z,163.68
2024-04-12T08:37:27.392Z,158.60
2024-04-12T08:38:27.391Z,155.11
2024-04-12T08:39:27.418Z,151.25
2024-04-12T08:40:27.872Z,150.43
2024-04-12T08:41:27.391Z,148.21
2024-04-12T08:42:27.386Z,145.85
2024-04-12T08:43:27.383Z,145.47
2024-04-12T08:44:27.408Z,146.53
2024-04-12T08:45:27.394Z,146.74
2024-04-12T08:46:27.404Z,145.27
2024-04-12T08:47:27.448Z,147.08
2024-04-12T08:48:27.563Z,147.37
2024-04-12T08:49:34.583Z,147.78
2024-04-12T08:50:27.382Z,147.82
2024-04-12T08:51:27.385Z,147.36
2024-04-12T08:52:38.098Z,147.82
2024-04-12T08:53:27.403Z,147.92
2024-04-12T08:54:27.415Z,148.02
2024-04-12T08:55:42.083Z,147.93
2024-04-12T08:56:27.435Z,147.95
2024-04-12T08:57:27.594Z,148.48
2024-04-12T08:58:53.700Z,149.47
2024-04-12T08:59:27.406Z,148.07
2024-04-12T09:00:28.909Z,149.29
2024-04-12T09:01:27.460Z,150.83
2024-04-12T09:02:27.408Z,152.34
2024-04-12T09:03:28.117Z,153.38
2024-04-12T09:04:27.521Z,153.84
2024-04-12T09:05:27.416Z,154.07
2024-04-12T09:06:27.401Z,154.54
2024-04-12T09:07:27.411Z,153.53
2024-04-12T09:08:29.951Z,153.33
2024-04-12T09:09:27.488Z,153.43
2024-04-12T09:10:27.440Z,152.68
2024-04-12T09:11:27.490Z,152.68
2024-04-12T09:12:27.431Z,153.94
2024-04-12T09:13:29.306Z,154.76
2024-04-12T09:14:30.089Z,154.83
2024-04-12T09:15:27.446Z,154.92
2024-04-12T09:16:27.442Z,155.27
2024-04-12T09:17:27.684Z,155.82
2024-04-12T09:18:28.198Z,157.08
2024-04-12T09:19:27.716Z,159.43
2024-04-12T09:20:27.443Z,159.83
2024-04-12T09:21:27.563Z,159.97
2024-04-12T09:22:27.445Z,160.83
2024-04-12T09:23:48.476Z,162.06
2024-04-12T09:24:27.460Z,162.28
2024-04-12T09:25:27.537Z,163.23
2024-04-12T09:26:27.661Z,164.51
2024-04-12T09:27:27.483Z,164.55
2024-04-12T09:28:27.461Z,162.49
2024-04-12T09:29:27.456Z,160.07
2024-04-12T09:30:27.463Z,156.22
2024-04-12T09:31:27.464Z,150.52
2024-04-12T09:32:27.647Z,144.14
2024-04-12T09:33:27.575Z,139.43
2024-04-12T09:34:27.614Z,133.97
2024-04-12T09:35:27.478Z,130.88
2024-04-12T09:36:27.555Z,124.85
2024-04-12T09:37:27.500Z,119.54
2024-04-12T09:38:27.482Z,113.12
2024-04-12T09:39:34.103Z,104.44
2024-04-12T09:40:27.463Z,104.46
2024-04-12T09:41:27.472Z,101.33
2024-04-12T09:42:27.474Z,95.67
2024-04-12T09:43:27.485Z,93.92
2024-04-12T09:44:27.496Z,89.92
2024-04-12T09:45:34.264Z,85.84
2024-04-12T09:46:27.481Z,85.88
2024-04-12T09:47:27.655Z,81.89
2024-04-12T09:48:43.786Z,77.46
2024-04-12T09:49:27.510Z,82.01
2024-04-12T09:50:27.503Z,76.07
2024-04-12T09:51:27.590Z,73.15
2024-04-12T09:52:27.518Z,68.60
2024-04-12T09:53:27.497Z,65.14
2024-04-12T09:54:27.485Z,62.54
2024-04-12T09:55:27.491Z,59.79
2024-04-12T09:56:27.485Z,56.21
2024-04-12T09:57:27.512Z,54.71
2024-04-12T09:58:27.513Z,54.46
2024-04-12T09:59:27.493Z,53.15
2024-04-12T10:00:27.493Z,50.00
2024-04-12T10:01:27.507Z,50.00
2024-04-12T10:02:27.556Z,51.63
2024-04-12T10:03:27.592Z,51.23
2024-04-12T10:04:27.514Z,50.08
2024-04-12T10:05:27.509Z,50.04
2024-04-12T10:06:27.575Z,51.00
2024-04-12T10:07:32.645Z,50.63
2024-04-12T10:08:27.602Z,50.16
2024-04-12T10:09:27.616Z,48.74
2024-04-12T10:10:43.111Z,45.67
2024-04-12T10:11:27.681Z,50.66
2024-04-12T10:12:27.623Z,49.61
2024-04-12T10:13:42.125Z,46.90
2024-04-12T10:14:27.763Z,50.67
2024-04-12T10:15:27.809Z,48.66
2024-04-12T10:16:43.583Z,46.63
2024-04-12T10:17:27.945Z,50.68
2024-04-12T10:18:28.008Z,51.11
2024-04-12T10:19:27.887Z,50.46
2024-04-12T10:20:27.892Z,48.60
2024-04-12T10:21:27.907Z,47.98
2024-04-12T10:22:27.904Z,50.16
2024-04-12T10:23:27.900Z,50.11
2024-04-12T10:24:27.931Z,50.00
2024-04-12T10:25:27.919Z,51.57
2024-04-12T10:26:28.120Z,50.19
2024-04-12T10:27:28.177Z,51.17
2024-04-12T10:28:27.904Z,51.05
2024-04-12T10:29:27.910Z,50.56
2024-04-12T10:30:27.907Z,51.89
2024-04-12T10:31:27.914Z,52.21
2024-04-12T10:32:28.218Z,53.62
2024-04-12T10:33:28.064Z,53.05
2024-04-12T10:34:27.901Z,53.91
2024-04-12T10:35:34.625Z,55.10
2024-04-12T10:36:28.001Z,55.24
2024-04-12T10:37:27.909Z,55.75
2024-04-12T10:38:41.180Z,56.76
2024-04-12T10:39:28.982Z,55.37
2024-04-12T10:40:27.927Z,56.51
2024-04-12T10:41:51.668Z,58.57
2024-04-12T10:42:27.923Z,55.40
2024-04-12T10:43:27.919Z,57.22
2024-04-12T10:45:27.950Z,55.33
2024-04-12T10:46:27.958Z,57.74
2024-04-12T10:47:27.923Z,62.28
2024-04-12T10:48:27.974Z,68.70
2024-04-12T10:49:27.930Z,77.39
2024-04-12T10:50:27.936Z,83.74
2024-04-12T10:51:27.936Z,84.68
2024-04-12T10:52:27.958Z,84.15
2024-04-12T10:53:27.949Z,83.66
2024-04-12T10:54:27.930Z,83.47
2024-04-12T10:55:27.938Z,84.81
2024-04-12T10:56:27.964Z,83.82
2024-04-12T10:57:28.023Z,84.45
2024-04-12T10:58:27.942Z,83.80
2024-04-12T10:59:28.042Z,86.24
2024-04-12T11:00:34.742Z,84.86
2024-04-12T11:01:28.392Z,84.92
2024-04-12T11:02:28.002Z,85.10
2024-04-12T11:03:42.711Z,85.45
2024-04-12T11:04:27.995Z,85.04
2024-04-12T11:05:28.041Z,85.59
2024-04-12T11:06:48.974Z,86.34
2024-04-12T11:07:27.972Z,85.11
2024-04-12T11:08:28.170Z,86.12
2024-04-12T11:09:48.974Z,87.85
2024-04-12T11:10:27.969Z,85.19
2024-04-12T11:11:28.002Z,86.45
2024-04-12T11:12:28.160Z,88.13
2024-04-12T11:13:27.987Z,90.92
2024-04-12T11:14:27.992Z,93.55
2024-04-12T11:15:28.043Z,93.62
2024-04-12T11:16:28.008Z,92.04
2024-04-12T11:17:28.005Z,91.81
2024-04-12T11:18:28.118Z,90.56
2024-04-12T11:19:28.024Z,90.13
2024-04-12T11:20:28.006Z,88.68
2024-04-12T11:21:27.999Z,88.85
2024-04-12T11:22:28.023Z,87.98
2024-04-12T11:23:27.993Z,88.12
2024-04-12T11:24:28.003Z,87.82
2024-04-12T11:25:27.996Z,85.43
2024-04-12T11:26:28.025Z,85.87
2024-04-12T11:27:28.073Z,85.68
2024-04-12T11:28:44.171Z,85.56
2024-04-12T11:29:28.026Z,85.73
2024-04-12T11:30:28.015Z,86.03
2024-04-12T11:31:49.075Z,86.23
2024-04-12T11:32:28.020Z,85.78
2024-04-12T11:33:33.870Z,86.56
2024-04-12T11:35:00.270Z,85.89
2024-04-12T11:35:28.033Z,85.79
2024-04-12T11:36:28.031Z,87.28
2024-04-12T11:37:49.470Z,89.05
2024-04-12T11:38:28.035Z,85.90
2024-04-12T11:39:28.042Z,87.12
2024-04-12T11:40:28.050Z,88.94
2024-04-12T11:41:28.084Z,90.47
2024-04-12T11:42:28.048Z,92.80
2024-04-12T11:43:28.330Z,90.19
2024-04-12T11:44:28.129Z,89.38
2024-04-12T11:45:28.055Z,88.20
2024-04-12T11:46:28.074Z,87.49
2024-04-12T11:47:28.150Z,86.73
2024-04-12T11:48:28.186Z,84.11
2024-04-12T11:49:28.672Z,85.36
2024-04-12T11:50:28.086Z,83.35
2024-04-12T11:51:28.082Z,81.60
2024-04-12T11:52:28.086Z,81.80
2024-04-12T11:53:28.100Z,81.67
2024-04-12T11:54:28.074Z,78.24
2024-04-12T11:55:29.368Z,79.03
2024-04-12T11:56:34.720Z,79.61
2024-04-12T11:57:28.093Z,79.21
2024-04-12T11:58:28.083Z,75.93
2024-04-12T11:59:35.182Z,76.50
2024-04-12T12:00:28.107Z,79.61
2024-04-12T12:01:28.076Z,76.68
2024-04-12T12:02:56.793Z,72.53
2024-04-12T12:03:28.172Z,79.68
2024-04-12T12:04:28.167Z,79.71
2024-04-12T12:05:28.103Z,75.81
2024-04-12T12:06:28.109Z,74.12
2024-04-12T12:07:28.143Z,73.74
2024-04-12T12:08:28.088Z,75.95
2024-04-12T12:09:28.095Z,77.07
2024-04-12T12:10:28.093Z,74.81
2024-04-12T12:11:28.113Z,74.30
2024-04-12T12:12:28.699Z,74.12
2024-04-12T12:13:28.109Z,74.43
2024-04-12T12:14:28.108Z,76.52
2024-04-12T12:15:28.149Z,76.68
2024-04-12T12:16:28.137Z,77.37
2024-04-12T12:17:28.132Z,78.85
2024-04-12T12:18:28.221Z,81.46
2024-04-12T12:19:28.125Z,86.28
2024-04-12T12:20:28.130Z,87.80
2024-04-12T12:21:31.183Z,88.75
2024-04-12T12:22:28.127Z,89.77
2024-04-12T12:23:28.133Z,87.36
2024-04-12T12:24:49.472Z,80.12
2024-04-12T12:25:28.173Z,80.24
2024-04-12T12:26:28.148Z,80.01
2024-04-12T12:27:56.687Z,75.68
2024-04-12T12:28:28.205Z,80.25
2024-04-12T12:29:28.155Z,80.81
2024-04-12T12:30:28.256Z,81.62
2024-04-12T12:31:28.140Z,84.01
2024-04-12T12:32:28.212Z,86.79
2024-04-12T12:33:28.248Z,90.97
2024-04-12T12:34:28.150Z,92.28
2024-04-12T12:35:28.147Z,95.29
2024-04-12T12:36:28.153Z,98.94
2024-04-12T12:37:28.153Z,103.66